Airport Name : Cambridge Bay

Other Name : Cambridge Bay

ICAO : CYCB

IATA : YCB

FAA :

Latitude : 69.108055

Longitude : -105.138333

Country : Canada

Local Date and Time : 4/23/2018 4:54:00 PM

 

TAF (Terminal Aerodrome Forecast)

 

METAR (METeorological Aerodrome Report)

CYCB 232200Z 27015KT 11SM DRSN FEW035 SCT100 BKN210 M17/M20 A3009 RMK SC2AC2CI3 SLP196

CYCB 232100Z 27017KT 15SM SCT100 BKN210 M17/M20 A3009 RMK AC4CI3 SLP198

CYCB 232000Z 27016KT 15SM FEW100 BKN210 M18/M21 A3010 RMK AC2CI4 SLP200

CYCB 231900Z 26012KT 15SM SCT100 BKN210 M19/M22 A3011 RMK AC3CI3 SLP203